Time;durP1;ratioP1;P1;durP2;ratioP2;P2;SDS_P1;SDS_P2;PMS_P1;PMS_P2;Temp;Humidity;BMP_temperature;BMP_pressure;BME280_temperature;BME280_humidity;BME280_pressure;Samples;Min_cycle;Max_cycle;Signal;HPM_P1;HPM_P2
2023/11/09 00:10:52;;;;;;;9.85;5.78;;;;;;;-147.20;100.00;63046.97;31544168;28;20098;-64
2023/11/09 00:25:52;;;;;;;8.85;4.70;;;;;;;-147.20;100.00;63046.97;31544077;28;20032;-65
2023/11/09 00:40:53;;;;;;;8.27;5.10;;;;;;;-147.20;100.00;63046.97;31543168;28;20075;-64
2023/11/09 00:55:53;;;;;;;8.68;5.80;;;;;;;-147.20;100.00;63046.97;31539600;28;20048;-64
2023/11/09 01:10:55;;;;;;;8.25;5.25;;;;;;;-147.20;100.00;63046.97;31538903;28;20480;-65
2023/11/09 01:25:56;;;;;;;7.80;4.20;;;;;;;-147.20;100.00;63046.97;31536833;28;20033;-65
2023/11/09 01:40:56;;;;;;;9.23;4.97;;;;;;;-147.20;100.00;63046.97;31536743;28;20060;-65
2023/11/09 01:55:57;;;;;;;7.93;4.88;;;;;;;-147.20;100.00;63046.97;31535028;28;20120;-66
2023/11/09 02:10:57;;;;;;;7.05;4.28;;;;;;;-147.20;100.00;63046.97;31534182;28;20155;-65
2023/11/09 02:25:59;;;;;;;10.10;3.97;;;;;;;-147.20;100.00;63046.97;31534140;28;20060;-66
2023/11/09 02:40:59;;;;;;;5.70;2.90;;;;;;;-147.20;100.00;63046.97;31549902;28;20119;-66
2023/11/09 02:55:59;;;;;;;8.60;3.53;;;;;;;-147.20;100.00;63046.97;31552484;28;21263;-67
2023/11/09 03:11:00;;;;;;;6.43;3.15;;;;;;;-147.20;100.00;63046.97;31552498;28;20033;-65
2023/11/09 03:26:00;;;;;;;7.18;3.80;;;;;;;-147.20;100.00;63046.97;31550187;28;20096;-66
2023/11/09 03:41:02;;;;;;;9.73;2.95;;;;;;;-147.20;100.00;63046.97;31547990;28;20079;-66
2023/11/09 03:56:03;;;;;;;4.97;2.70;;;;;;;-147.20;100.00;63046.97;31543727;28;20136;-64
2023/11/09 04:11:03;;;;;;;2.72;2.13;;;;;;;-147.20;100.00;63046.97;31543031;28;20752;-67
2023/11/09 04:26:08;;;;;;;5.05;2.20;;;;;;;-147.20;100.00;63046.97;31541697;28;20406;-66
2023/11/09 04:41:15;;;;;;;4.63;2.72;;;;;;;-147.20;100.00;63046.97;31539356;28;20036;-65
2023/11/09 05:11:35;;;;;;;4.43;2.30;;;;;;;-147.20;100.00;63046.97;31534928;28;20052;-66
2023/11/09 05:26:36;;;;;;;4.90;2.65;;;;;;;-147.20;100.00;63046.97;31531264;28;20037;-66
2023/11/09 05:41:36;;;;;;;5.10;2.72;;;;;;;-147.20;100.00;63046.97;31531074;28;20446;-63
2023/11/09 05:56:37;;;;;;;4.90;2.40;;;;;;;-147.20;100.00;63046.97;31530776;28;21420;-65
2023/11/09 06:11:37;;;;;;;4.22;1.90;;;;;;;-147.20;100.00;63046.97;31541862;28;20417;-65
2023/11/09 06:26:37;;;;;;;4.82;2.60;;;;;;;-147.20;100.00;63046.97;31549898;28;20464;-65
2023/11/09 06:41:38;;;;;;;4.32;2.20;;;;;;;-147.20;100.00;63046.97;31547767;28;20029;-63
2023/11/09 06:56:39;;;;;;;4.35;2.10;;;;;;;-147.20;100.00;63046.97;31547750;28;20498;-65
2023/11/09 07:11:42;;;;;;;5.18;1.90;;;;;;;-147.20;100.00;63046.97;31545970;28;20049;-65
2023/11/09 07:26:43;;;;;;;5.90;2.23;;;;;;;-147.20;100.00;63046.97;31544297;28;20456;-66
2023/11/09 07:41:43;;;;;;;2.92;1.58;;;;;;;-147.20;100.00;63046.97;31544109;28;20069;-67
2023/11/09 07:56:44;;;;;;;4.78;2.08;;;;;;;-147.20;100.00;63046.97;31540674;28;20144;-66
2023/11/09 08:11:45;;;;;;;10.35;3.08;;;;;;;-147.20;100.00;63046.97;31541128;28;20107;-63
2023/11/09 08:26:47;;;;;;;6.53;2.33;;;;;;;-147.20;100.00;63046.97;31539352;28;20091;-67
2023/11/09 08:41:48;;;;;;;3.33;1.97;;;;;;;-147.20;100.00;63046.97;31532913;28;20466;-65
2023/11/09 08:56:48;;;;;;;4.28;2.40;;;;;;;-147.20;100.00;63046.97;31534409;28;20060;-65
2023/11/09 09:11:51;;;;;;;6.45;2.10;;;;;;;-147.20;100.00;63046.97;31534470;28;20119;-66
2023/11/09 09:26:51;;;;;;;4.45;1.95;;;;;;;-147.20;100.00;63046.97;31533346;28;20076;-66
2023/11/09 09:41:51;;;;;;;7.33;2.63;;;;;;;-147.20;100.00;63046.97;31534913;28;23835;-63
2023/11/09 09:56:53;;;;;;;4.40;2.10;;;;;;;-147.20;100.00;63046.97;31555025;28;20268;-64
2023/11/09 10:11:54;;;;;;;5.38;2.30;;;;;;;-147.20;100.00;63046.97;31553823;28;20036;-65
2023/11/09 10:26:54;;;;;;;4.97;1.77;;;;;;;-147.20;100.00;63046.97;31549707;28;20025;-65
2023/11/09 10:41:55;;;;;;;4.03;1.80;;;;;;;-147.20;100.00;63046.97;31547555;28;20033;-64
2023/11/09 10:56:56;;;;;;;4.38;2.50;;;;;;;-147.20;100.00;63046.97;31547098;28;20517;-66
2023/11/09 11:12:01;;;;;;;4.27;2.40;;;;;;;-147.20;100.00;63046.97;31546876;28;20504;-66
2023/11/09 11:27:16;;;;;;;4.40;1.73;;;;;;;-147.20;100.00;63046.97;31544859;28;20387;-66
2023/11/09 11:42:25;;;;;;;4.00;1.80;;;;;;;-147.20;100.00;63046.97;31543855;28;20036;-66
2023/11/09 11:57:34;;;;;;;4.37;1.77;;;;;;;-147.20;100.00;63046.97;31540013;28;20291;-66
2023/11/09 12:12:34;;;;;;;4.10;2.17;;;;;;;-147.20;100.00;63046.97;31539536;28;20784;-67
2023/11/09 12:27:38;;;;;;;8.20;3.28;;;;;;;-147.20;100.00;63046.97;31538355;28;20252;-66
2023/11/09 12:42:39;;;;;;;7.43;3.40;;;;;;;-147.20;100.00;63046.97;31535244;28;20112;-66
2023/11/09 12:57:43;;;;;;;4.85;1.45;;;;;;;-147.20;100.00;63046.97;31536175;28;20049;-64
2023/11/09 13:12:47;;;;;;;5.60;1.60;;;;;;;-147.20;100.00;63046.97;31534032;28;20025;-66
2023/11/09 13:27:48;;;;;;;3.20;1.40;;;;;;;-147.20;100.00;63046.97;31532146;28;20033;-65
2023/11/09 13:42:48;;;;;;;;;;;;;;;-147.20;100.00;63046.97;31531906;28;20091;-65
2023/11/09 13:57:49;;;;;;;4.57;2.40;;;;;;;-147.20;100.00;63046.97;31532601;28;19921;-65
2023/11/09 14:12:50;;;;;;;5.03;2.50;;;;;;;-147.20;100.00;63046.97;31530074;28;20063;-66
2023/11/09 14:27:50;;;;;;;6.00;2.20;;;;;;;-147.20;100.00;63046.97;31531877;28;20116;-64
2023/11/09 14:42:53;;;;;;;7.07;3.30;;;;;;;-147.20;100.00;63046.97;31549506;28;20071;-65
2023/11/09 14:57:53;;;;;;;6.10;3.30;;;;;;;-147.20;100.00;63046.97;31548446;28;20431;-64
2023/11/09 15:12:54;;;;;;;9.35;4.35;;;;;;;-147.20;100.00;63046.97;31547529;28;20094;-64
2023/11/09 15:27:55;;;;;;;9.27;5.00;;;;;;;-147.20;100.00;63046.97;31545155;28;20041;-65
2023/11/09 15:42:56;;;;;;;7.70;5.05;;;;;;;-147.20;100.00;63046.97;31542764;28;20347;-66
2023/11/09 15:57:56;;;;;;;8.68;5.15;;;;;;;-147.20;100.00;63046.97;31544028;28;24936;-66
2023/11/09 16:12:57;;;;;;;9.48;5.45;;;;;;;-147.20;100.00;63046.97;31542525;28;20027;-65
2023/11/09 16:27:58;;;;;;;10.60;5.88;;;;;;;-147.20;100.00;63046.97;31539501;28;20053;-67
2023/11/09 16:42:58;;;;;;;8.77;5.18;;;;;;;-147.20;100.00;63046.97;31538251;28;20501;-66
2023/11/09 16:57:59;;;;;;;8.32;4.95;;;;;;;-147.20;100.00;63046.97;31535455;28;23074;-65
2023/11/09 17:12:59;;;;;;;11.95;5.10;;;;;;;-147.20;100.00;63046.97;31535320;28;21933;-67
2023/11/09 17:28:02;;;;;;;13.57;6.82;;;;;;;-147.20;100.00;63046.97;31532456;28;20040;-65
2023/11/09 17:43:03;;;;;;;10.27;6.47;;;;;;;-147.20;100.00;63046.97;31531729;28;20116;-66
2023/11/09 17:58:03;;;;;;;13.82;6.65;;;;;;;-147.20;100.00;63046.97;31531171;28;20055;-66
2023/11/09 18:13:05;;;;;;;13.18;7.57;;;;;;;-147.20;100.00;63046.97;31546692;28;20060;-66
2023/11/09 18:28:07;;;;;;;16.73;8.00;;;;;;;-147.20;100.00;63046.97;31549370;28;20056;-65
2023/11/09 18:43:07;;;;;;;18.20;9.75;;;;;;;-147.20;100.00;63046.97;31549174;28;20055;-66
2023/11/09 18:58:08;;;;;;;16.95;9.20;;;;;;;-147.20;100.00;63046.97;31548480;28;20045;-66
2023/11/09 19:13:09;;;;;;;13.57;8.32;;;;;;;-147.20;100.00;63046.97;31546258;28;24926;-65
2023/11/09 19:28:09;;;;;;;9.02;6.57;;;;;;;-147.20;100.00;63046.97;31547127;28;20033;-65
2023/11/09 19:43:09;;;;;;;13.20;7.70;;;;;;;-147.20;100.00;63046.97;31546329;28;20463;-66
2023/11/09 19:58:10;;;;;;;15.23;8.77;;;;;;;-147.20;100.00;63046.97;31545653;28;20052;-66
2023/11/09 20:13:11;;;;;;;13.18;7.68;;;;;;;-147.20;100.00;63046.97;31542089;28;20036;-66
2023/11/09 20:28:13;;;;;;;11.50;6.78;;;;;;;-147.20;100.00;63046.97;31537816;28;20117;-65
2023/11/09 20:43:13;;;;;;;13.38;7.72;;;;;;;-147.20;100.00;63046.97;31539495;28;20113;-64
2023/11/09 20:58:14;;;;;;;11.77;7.10;;;;;;;-147.20;100.00;63046.97;31537864;28;20037;-66
2023/11/09 21:13:14;;;;;;;12.20;6.97;;;;;;;-147.20;100.00;63046.97;31537179;28;20025;-67
2023/11/09 21:28:15;;;;;;;9.95;6.15;;;;;;;-147.20;100.00;63046.97;31535800;28;20461;-65
2023/11/09 21:43:15;;;;;;;10.35;5.50;;;;;;;-147.20;100.00;63046.97;31532720;28;20029;-65
2023/11/09 21:58:15;;;;;;;9.75;4.38;;;;;;;-147.20;100.00;63046.97;31533115;28;20053;-65
2023/11/09 22:13:16;;;;;;;6.55;4.60;;;;;;;-147.20;100.00;63046.97;31531920;28;20496;-66
2023/11/09 22:28:16;;;;;;;7.88;4.20;;;;;;;-147.20;100.00;63046.97;31532457;28;20386;-64
2023/11/09 22:43:17;;;;;;;8.10;4.65;;;;;;;-147.20;100.00;63046.97;31531887;28;20410;-65
2023/11/09 22:58:18;;;;;;;10.85;5.22;;;;;;;-147.20;100.00;63046.97;31546566;28;20045;-64
2023/11/09 23:13:18;;;;;;;7.78;4.85;;;;;;;-147.20;100.00;63046.97;31551414;28;20029;-64
2023/11/09 23:28:18;;;;;;;8.90;5.63;;;;;;;-147.20;100.00;63046.97;31550138;28;20029;-65
2023/11/09 23:43:19;;;;;;;7.35;5.50;;;;;;;-147.20;100.00;63046.97;31549440;28;20020;-65
2023/11/09 23:58:22;;;;;;;8.68;6.00;;;;;;;-147.20;100.00;63046.97;31547568;28;20052;-66
